This is the latest recevied weather packets stored in our database for station/object SP1BMW-13. If no packets are shown the sender has not sent any weather packets the latest 10 day(s).
| Time | Temp. | Humidity | Pressure | Rain* | Wind** | Luminosity | Snow |
|---|---|---|---|---|---|---|---|
| 1787823316 | 23.33° C | 49% | 1020.5 hPa | 0 mm | 0.89 m/s, 109° | 546 W/m² | - |
| 1787823255 | 23.33° C | 48% | 1020.4 hPa | 0 mm | 1.79 m/s, 42° | 546 W/m² | - |
| 1787823195 | 23.33° C | 48% | 1020.5 hPa | 0 mm | 2.68 m/s, 38° | 545 W/m² | - |
| 1787823135 | 23.33° C | 48% | 1020.6 hPa | 0 mm | 1.34 m/s, 166° | 541 W/m² | - |
| 1787823076 | 23.33° C | 49% | 1020.5 hPa | 0 mm | 0.89 m/s, 98° | 540 W/m² | - |
| 1787823015 | 23.33° C | 46% | 1020.3 hPa | 0 mm | 3.13 m/s, 29° | 539 W/m² | - |
| 1787822957 | 23.33° C | 50% | 1020.4 hPa | 0 mm | 0.89 m/s, 127° | 539 W/m² | - |
| 1787822896 | 23.33° C | 48% | 1020.3 hPa | 0 mm | 0.89 m/s, 304° | 534 W/m² | - |
| 1787822836 | 23.33° C | 49% | 1020.4 hPa | 0 mm | 0.89 m/s, 26° | 533 W/m² | - |
| 1787822777 | 23.33° C | 49% | 1020.3 hPa | 0 mm | 0.89 m/s, 24° | 533 W/m² | - |
| 1787822716 | 23.33° C | 49% | 1020.4 hPa | 0 mm | 1.34 m/s, 39° | 528 W/m² | - |
| 1787822656 | 23.33° C | 49% | 1020.5 hPa | 0 mm | 0.89 m/s, 46° | 529 W/m² | - |
| 1787822596 | 23.33° C | 48% | 1020.4 hPa | 0 mm | 0.89 m/s, 56° | 528 W/m² | - |
| 1787822536 | 23.33° C | 49% | 1020.4 hPa | 0 mm | 0.89 m/s, 121° | 527 W/m² | - |
| 1787822476 | 23.33° C | 50% | 1020.3 hPa | 0 mm | 1.34 m/s, 50° | 525 W/m² | - |
| 1787822417 | 23.33° C | 49% | 1020.5 hPa | 0 mm | 1.79 m/s, 32° | 523 W/m² | - |
| 1787822356 | 23.33° C | 50% | 1020.4 hPa | 0 mm | 1.79 m/s, 6° | 523 W/m² | - |
| 1787822297 | 23.33° C | 49% | 1020.3 hPa | 0 mm | 1.34 m/s, 105° | 521 W/m² | - |
| 1787822236 | 22.78° C | 49% | 1020.4 hPa | 0 mm | 1.34 m/s, 25° | 521 W/m² | - |
| 1787822176 | 22.78° C | 50% | 1020.4 hPa | 0 mm | 0.89 m/s, 45° | 518 W/m² | - |
| 1787822116 | 23.33° C | 51% | 1020.6 hPa | 0 mm | 1.34 m/s, 125° | 516 W/m² | - |
| 1787822056 | 23.33° C | 51% | 1020.4 hPa | 0 mm | 0.89 m/s, 48° | 517 W/m² | - |
| 1787821996 | 23.33° C | 51% | 1020.4 hPa | 0 mm | 0.45 m/s, 17° | 515 W/m² | - |
| 1787821936 | 22.78° C | 51% | 1020.4 hPa | 0 mm | 1.79 m/s, 45° | 513 W/m² | - |
| 1787821876 | 22.78° C | 51% | 1020.6 hPa | 0 mm | 0 m/s | 513 W/m² | - |
* Rain latest hour (hover to see other rain measurements)
** Current wind speed in m/s (hover to see current wind gust speed)